Time;durP1;ratioP1;P1;durP2;ratioP2;P2;SDS_P1;SDS_P2;PMS_P1;PMS_P2;Temp;Humidity;BMP_temperature;BMP_pressure;BME280_temperature;BME280_humidity;BME280_pressure;Samples;Min_cycle;Max_cycle;Signal;HPM_P1;HPM_P2
2023/03/04 00:01:04;;;;;;;0.30;0.30;;;5.30;99.90;;;;;;5015185;28;20196;-82
2023/03/04 00:03:30;;;;;;;0.30;0.30;;;5.40;99.90;;;;;;5024160;28;20191;-82
2023/03/04 00:05:55;;;;;;;0.30;0.30;;;5.20;99.90;;;;;;5031278;28;20241;-82
2023/03/04 00:08:21;;;;;;;0.30;0.30;;;5.20;99.90;;;;;;5022989;28;20659;-82
2023/03/04 00:10:46;;;;;;;0.40;0.40;;;5.30;99.90;;;;;;5036987;28;20280;-82
2023/03/04 00:13:12;;;;;;;0.30;0.30;;;5.20;99.90;;;;;;5031435;28;20186;-82
2023/03/04 00:15:37;;;;;;;0.30;0.30;;;5.40;99.90;;;;;;5028957;28;20662;-82
2023/03/04 00:18:03;;;;;;;0.40;0.40;;;5.20;99.90;;;;;;5010418;28;20238;-82
2023/03/04 00:20:28;;;;;;;0.30;0.30;;;5.30;99.90;;;;;;5028675;28;20691;-82
2023/03/04 00:22:54;;;;;;;0.30;0.30;;;5.30;99.90;;;;;;5027613;28;20196;-82
2023/03/04 00:25:19;;;;;;;0.30;0.30;;;5.20;99.90;;;;;;5028166;28;20191;-82
2023/03/04 00:27:46;;;;;;;0.30;0.30;;;5.40;99.90;;;;;;5025095;28;20179;-82
2023/03/04 00:30:12;;;;;;;0.40;0.40;;;5.30;99.90;;;;;;5028459;28;20186;-82
2023/03/04 00:32:37;;;;;;;0.30;0.30;;;5.30;99.90;;;;;;5028257;28;20438;-82
2023/03/04 00:35:04;;;;;;;0.30;0.30;;;5.40;99.90;;;;;;5026937;28;20438;-82
2023/03/04 00:37:30;;;;;;;0.40;0.40;;;5.30;99.90;;;;;;5017097;28;20180;-82
2023/03/04 00:39:55;;;;;;;0.30;0.30;;;5.30;99.90;;;;;;5029058;28;20888;-82
2023/03/04 00:42:21;;;;;;;0.30;0.30;;;5.40;99.90;;;;;;5038158;28;20227;-82
2023/03/04 00:44:48;;;;;;;0.30;0.30;;;5.30;99.90;;;;;;5028111;28;20275;-82
2023/03/04 00:47:14;;;;;;;0.20;0.20;;;5.40;99.90;;;;;;5013989;28;20184;-82
2023/03/04 00:49:39;;;;;;;0.30;0.30;;;5.40;99.90;;;;;;5032912;28;20529;-82
2023/03/04 00:52:05;;;;;;;0.30;0.30;;;5.30;99.90;;;;;;5032057;28;20180;-82
2023/03/04 00:54:31;;;;;;;0.30;0.30;;;5.30;99.90;;;;;;5012909;28;20192;-82
2023/03/04 00:56:57;;;;;;;0.30;0.30;;;5.40;99.90;;;;;;5012995;28;20184;-82
2023/03/04 00:59:22;;;;;;;0.30;0.30;;;5.30;99.90;;;;;;5024480;28;20243;-82
2023/03/04 01:01:48;;;;;;;0.30;0.30;;;5.30;99.90;;;;;;5043694;28;20791;-82
2023/03/04 01:04:13;;;;;;;0.40;0.40;;;5.40;99.90;;;;;;5019829;28;20186;-82
2023/03/04 01:06:39;;;;;;;0.30;0.30;;;5.30;99.90;;;;;;5018131;28;20167;-82
2023/03/04 01:09:04;;;;;;;0.30;0.30;;;5.30;99.90;;;;;;5031914;28;20651;-82
2023/03/04 01:11:30;;;;;;;0.30;0.30;;;5.40;99.90;;;;;;5018423;28;20265;-82
2023/03/04 01:13:55;;;;;;;0.30;0.30;;;5.40;99.90;;;;;;5011612;28;20187;-82
2023/03/04 01:16:21;;;;;;;0.40;0.40;;;5.40;99.90;;;;;;5037339;28;20194;-82
2023/03/04 01:18:46;;;;;;;0.30;0.30;;;5.30;99.90;;;;;;5031259;28;20313;-82
2023/03/04 01:21:12;;;;;;;0.30;0.30;;;5.30;99.90;;;;;;5022435;28;20271;-82
2023/03/04 01:23:38;;;;;;;0.40;0.40;;;5.50;99.90;;;;;;5037430;28;20187;-81
2023/03/04 01:26:03;;;;;;;0.30;0.30;;;5.50;99.90;;;;;;5036176;28;20213;-81
2023/03/04 01:28:29;;;;;;;0.30;0.30;;;5.40;99.90;;;;;;5032101;28;20188;-81
2023/03/04 01:30:54;;;;;;;0.30;0.30;;;5.50;99.90;;;;;;5029807;28;20179;-81
2023/03/04 01:33:20;;;;;;;0.30;0.30;;;5.50;99.90;;;;;;5030414;28;20179;-82
2023/03/04 01:35:45;;;;;;;0.30;0.30;;;5.50;99.90;;;;;;5029857;28;20198;-81
2023/03/04 01:38:11;;;;;;;0.30;0.30;;;5.40;99.90;;;;;;5039821;28;20354;-82
2023/03/04 01:40:37;;;;;;;0.20;0.20;;;5.40;99.90;;;;;;5031696;28;20257;-82
2023/03/04 01:43:04;;;;;;;0.30;0.30;;;5.40;99.90;;;;;;5044020;28;20250;-82
2023/03/04 01:45:31;;;;;;;0.30;0.30;;;5.50;99.90;;;;;;5034023;28;20868;-82
2023/03/04 01:47:56;;;;;;;0.30;0.30;;;5.40;99.90;;;;;;5045145;28;20423;-82
2023/03/04 01:50:34;;;;;;;0.30;0.30;;;5.50;99.90;;;;;;5030911;28;20452;-82
2023/03/04 01:53:01;;;;;;;0.30;0.30;;;5.40;99.90;;;;;;5031467;28;20234;-82
2023/03/04 01:55:28;;;;;;;0.30;0.30;;;5.50;99.90;;;;;;5028445;28;20438;-82
2023/03/04 01:57:54;;;;;;;0.30;0.30;;;5.50;99.90;;;;;;5030463;28;20438;-82
2023/03/04 02:00:32;;;;;;;0.30;0.30;;;5.50;99.90;;;;;;5027097;28;20485;-82
2023/03/04 02:03:03;;;;;;;0.30;0.30;;;5.40;99.90;;;;;;5046659;28;20534;-82
2023/03/04 02:05:29;;;;;;;0.30;0.30;;;5.50;99.90;;;;;;5031513;28;20442;-83
2023/03/04 02:07:56;;;;;;;0.30;0.30;;;5.50;99.90;;;;;;5030754;28;20419;-82
2023/03/04 02:10:22;;;;;;;0.30;0.30;;;5.40;99.90;;;;;;5028665;28;20438;-82
2023/03/04 02:12:49;;;;;;;0.30;0.30;;;5.50;99.90;;;;;;5027037;28;20443;-82
2023/03/04 02:15:15;;;;;;;0.30;0.30;;;5.50;99.90;;;;;;5029799;28;20442;-82
2023/03/04 02:17:41;;;;;;;0.30;0.30;;;5.40;99.90;;;;;;5027520;28;20553;-82
2023/03/04 02:20:16;;;;;;;0.30;0.30;;;5.40;99.90;;;;;;5013005;28;20961;-83
2023/03/04 02:22:52;;;;;;;0.40;0.40;;;5.50;99.90;;;;;;5041698;28;20198;-83
2023/03/04 02:25:25;;;;;;;0.30;0.30;;;5.50;99.90;;;;;;5026955;28;20450;-82
2023/03/04 02:27:51;;;;;;;0.30;0.30;;;5.50;99.90;;;;;;5047059;28;20449;-82
2023/03/04 02:30:20;;;;;;;0.30;0.30;;;5.50;99.90;;;;;;5033158;28;20453;-82
2023/03/04 02:32:46;;;;;;;0.30;0.30;;;5.50;99.90;;;;;;5030361;28;20198;-82
2023/03/04 02:35:19;;;;;;;0.30;0.30;;;5.60;99.90;;;;;;5038329;28;20445;-82
2023/03/04 02:37:45;;;;;;;0.30;0.30;;;5.50;99.90;;;;;;5026869;28;20736;-82
2023/03/04 02:40:28;;;;;;;0.30;0.30;;;5.50;99.90;;;;;;5031519;28;20509;-82
2023/03/04 02:42:54;;;;;;;0.30;0.30;;;5.50;99.90;;;;;;5020675;28;20262;-82
2023/03/04 02:45:38;;;;;;;0.30;0.30;;;5.50;99.90;;;;;;5042405;28;20536;-82
2023/03/04 02:48:04;;;;;;;0.30;0.30;;;5.50;99.90;;;;;;5029038;28;20600;-82
2023/03/04 02:50:33;;;;;;;0.37;0.37;;;5.50;99.90;;;;;;5011561;28;20546;-82
2023/03/04 02:52:59;;;;;;;0.30;0.30;;;5.50;99.90;;;;;;5029097;28;20442;-83
2023/03/04 02:55:24;;;;;;;0.40;0.40;;;5.50;99.90;;;;;;5024712;28;20446;-82
2023/03/04 02:57:50;;;;;;;0.40;0.40;;;5.50;99.90;;;;;;5042988;28;20182;-82
2023/03/04 03:00:16;;;;;;;0.40;0.40;;;5.50;99.90;;;;;;5027838;28;20622;-82
2023/03/04 03:02:41;;;;;;;0.30;0.30;;;5.40;99.90;;;;;;5032665;28;20282;-82
2023/03/04 03:05:07;;;;;;;0.30;0.30;;;5.50;99.90;;;;;;5008919;28;20458;-82
2023/03/04 03:07:33;;;;;;;0.30;0.30;;;5.40;99.90;;;;;;5049206;28;20550;-82
2023/03/04 03:10:00;;;;;;;0.30;0.30;;;5.40;99.90;;;;;;5024804;28;20191;-82
2023/03/04 03:12:25;;;;;;;0.30;0.30;;;5.40;99.90;;;;;;5014893;28;20450;-82
2023/03/04 03:14:51;;;;;;;0.30;0.30;;;5.30;99.90;;;;;;5019905;28;20441;-82
2023/03/04 03:17:16;;;;;;;0.30;0.30;;;5.40;99.90;;;;;;5026956;28;20191;-83
2023/03/04 03:19:42;;;;;;;0.20;0.20;;;5.40;99.90;;;;;;5040020;28;20220;-82
2023/03/04 03:22:08;;;;;;;0.30;0.30;;;5.30;99.90;;;;;;5025477;28;20191;-82
2023/03/04 03:24:33;;;;;;;0.40;0.40;;;5.30;99.90;;;;;;5025919;28;20195;-82
2023/03/04 03:26:59;;;;;;;0.40;0.40;;;5.30;99.90;;;;;;5027651;28;20446;-83
2023/03/04 03:29:24;;;;;;;0.30;0.30;;;5.30;99.90;;;;;;5026495;28;20227;-81
2023/03/04 03:31:50;;;;;;;0.30;0.30;;;5.30;99.90;;;;;;5029668;28;20675;-83
2023/03/04 03:34:15;;;;;;;0.40;0.40;;;5.40;99.90;;;;;;5028288;28;20270;-82
2023/03/04 03:36:41;;;;;;;0.30;0.30;;;5.40;99.90;;;;;;5027671;28;20219;-82
2023/03/04 03:39:06;;;;;;;0.30;0.30;;;5.40;99.90;;;;;;5025609;28;20406;-82
2023/03/04 03:41:32;;;;;;;0.20;0.20;;;5.40;99.90;;;;;;5010804;28;20235;-82
2023/03/04 03:43:57;;;;;;;0.30;0.30;;;5.40;99.90;;;;;;5028169;28;20199;-82
2023/03/04 03:46:23;;;;;;;0.30;0.30;;;5.40;99.90;;;;;;5010975;28;20195;-82
2023/03/04 03:48:48;;;;;;;0.30;0.30;;;5.40;99.90;;;;;;5029600;28;20657;-82
2023/03/04 03:51:14;;;;;;;0.40;0.40;;;5.40;99.90;;;;;;5037301;28;20175;-82
2023/03/04 03:53:39;;;;;;;0.30;0.30;;;5.30;99.90;;;;;;5038237;28;20218;-82
2023/03/04 03:56:05;;;;;;;0.30;0.30;;;5.30;99.90;;;;;;5029910;28;20197;-82
2023/03/04 03:58:31;;;;;;;0.40;0.40;;;5.20;99.90;;;;;;5028134;28;20249;-82
2023/03/04 04:00:56;;;;;;;0.23;0.23;;;5.20;99.90;;;;;;5031814;28;20450;-82
2023/03/04 04:03:22;;;;;;;0.30;0.30;;;5.30;99.90;;;;;;5032787;28;20198;-82
2023/03/04 04:05:48;;;;;;;0.30;0.30;;;5.20;99.90;;;;;;5031497;28;20199;-82
2023/03/04 04:08:15;;;;;;;0.30;0.30;;;5.20;99.90;;;;;;5011608;28;20558;-82
2023/03/04 04:10:41;;;;;;;0.33;0.33;;;5.20;99.90;;;;;;5007222;28;20758;-82
2023/03/04 04:13:07;;;;;;;0.40;0.40;;;5.20;99.90;;;;;;5024782;28;20479;-82
2023/03/04 04:15:33;;;;;;;0.30;0.30;;;5.10;99.90;;;;;;5037773;28;20508;-82
2023/03/04 04:17:58;;;;;;;0.30;0.30;;;5.20;99.90;;;;;;5047043;28;20202;-82
2023/03/04 04:20:24;;;;;;;0.20;0.20;;;5.10;99.90;;;;;;5014956;28;20226;-82
2023/03/04 04:22:49;;;;;;;0.40;0.40;;;5.10;99.90;;;;;;5038581;28;20695;-82
2023/03/04 04:25:16;;;;;;;0.40;0.40;;;5.10;99.90;;;;;;5039003;28;20819;-82
2023/03/04 04:27:42;;;;;;;0.37;0.37;;;5.00;99.90;;;;;;5032221;28;20211;-82
2023/03/04 04:30:08;;;;;;;0.30;0.30;;;5.10;99.90;;;;;;5031144;28;20531;-82
2023/03/04 04:32:33;;;;;;;0.30;0.30;;;5.10;99.90;;;;;;5032758;28;20238;-82
2023/03/04 04:34:59;;;;;;;0.30;0.30;;;5.10;99.90;;;;;;5033548;28;20442;-82
2023/03/04 04:37:24;;;;;;;0.30;0.30;;;5.10;99.90;;;;;;5032446;28;20604;-82
2023/03/04 04:39:50;;;;;;;0.40;0.40;;;5.10;99.90;;;;;;5030624;28;20229;-82
2023/03/04 04:42:16;;;;;;;0.30;0.30;;;5.00;99.90;;;;;;5027996;28;20630;-82
2023/03/04 04:44:42;;;;;;;0.30;0.30;;;5.00;99.90;;;;;;5031562;28;20556;-82
2023/03/04 04:47:08;;;;;;;0.30;0.30;;;5.00;99.90;;;;;;5030191;28;21008;-82
2023/03/04 04:49:34;;;;;;;0.40;0.40;;;5.00;99.90;;;;;;5030941;28;20209;-83
2023/03/04 04:51:59;;;;;;;0.33;0.33;;;5.00;99.90;;;;;;5033993;28;20845;-82
2023/03/04 04:54:25;;;;;;;0.40;0.40;;;5.00;99.90;;;;;;5026398;28;20179;-82
2023/03/04 04:56:50;;;;;;;0.30;0.30;;;5.00;99.90;;;;;;5014994;28;20274;-82
2023/03/04 04:59:16;;;;;;;0.30;0.30;;;5.00;99.90;;;;;;5032025;28;20215;-82
2023/03/04 05:01:41;;;;;;;0.30;0.30;;;4.90;99.90;;;;;;5038807;28;20195;-82
2023/03/04 05:04:07;;;;;;;0.30;0.30;;;4.90;99.90;;;;;;5042003;28;20210;-82
2023/03/04 05:06:32;;;;;;;0.30;0.30;;;4.90;99.90;;;;;;5033415;28;20241;-82
2023/03/04 05:08:58;;;;;;;0.40;0.40;;;4.90;99.90;;;;;;5032476;28;20179;-82
2023/03/04 05:11:23;;;;;;;0.30;0.30;;;4.90;99.90;;;;;;5026921;28;20211;-82
2023/03/04 05:13:49;;;;;;;0.30;0.30;;;4.90;99.90;;;;;;5026960;28;20267;-82
2023/03/04 05:16:16;;;;;;;0.30;0.30;;;4.90;99.90;;;;;;5028474;28;20187;-82
2023/03/04 05:18:42;;;;;;;0.30;0.30;;;4.80;99.90;;;;;;5034092;28;20286;-82
2023/03/04 05:21:07;;;;;;;0.30;0.30;;;4.80;99.90;;;;;;5034525;28;22183;-82
2023/03/04 05:23:36;;;;;;;0.37;0.37;;;4.80;99.90;;;;;;5032145;28;20438;-82
2023/03/04 05:26:04;;;;;;;0.30;0.30;;;4.80;99.90;;;;;;5023908;28;20702;-82
2023/03/04 05:28:29;;;;;;;0.40;0.40;;;4.80;99.90;;;;;;5032365;28;20925;-82
2023/03/04 05:30:55;;;;;;;0.40;0.40;;;4.80;99.90;;;;;;5031265;28;20454;-82
2023/03/04 05:33:20;;;;;;;0.30;0.30;;;4.70;99.90;;;;;;5037998;28;20187;-82
2023/03/04 05:35:48;;;;;;;0.40;0.40;;;4.70;99.90;;;;;;5043005;28;20203;-82
2023/03/04 05:38:17;;;;;;;0.30;0.30;;;4.70;99.90;;;;;;5032093;28;20229;-82
2023/03/04 05:40:43;;;;;;;0.30;0.30;;;4.70;99.90;;;;;;5028143;28;20571;-82
2023/03/04 05:43:09;;;;;;;0.40;0.40;;;4.70;99.90;;;;;;5031413;28;20478;-82
2023/03/04 05:45:35;;;;;;;0.30;0.30;;;4.70;99.90;;;;;;5031215;28;20453;-82
2023/03/04 05:48:02;;;;;;;0.40;0.40;;;4.70;99.90;;;;;;5028747;28;20989;-82
2023/03/04 05:50:27;;;;;;;0.40;0.40;;;4.70;99.90;;;;;;5030600;28;21498;-82
2023/03/04 05:52:53;;;;;;;0.33;0.33;;;4.70;99.90;;;;;;5027023;28;20544;-83
2023/03/04 05:55:19;;;;;;;0.30;0.30;;;4.70;99.90;;;;;;5021486;28;20188;-82
2023/03/04 05:57:45;;;;;;;0.33;0.33;;;4.60;99.90;;;;;;5023882;28;22082;-82
2023/03/04 06:00:12;;;;;;;0.40;0.40;;;4.60;99.90;;;;;;5016497;28;20626;-82
2023/03/04 06:02:38;;;;;;;0.40;0.40;;;4.70;99.90;;;;;;5023578;28;20192;-82
2023/03/04 06:05:05;;;;;;;0.40;0.40;;;4.70;99.90;;;;;;5006944;28;20504;-82
2023/03/04 06:07:30;;;;;;;0.40;0.40;;;4.60;99.90;;;;;;5025701;28;20453;-82
2023/03/04 06:09:56;;;;;;;0.40;0.40;;;4.60;99.90;;;;;;5021386;28;20455;-82
2023/03/04 06:12:22;;;;;;;0.40;0.40;;;4.60;99.90;;;;;;5026292;28;20208;-82
2023/03/04 06:14:47;;;;;;;0.40;0.40;;;4.70;99.90;;;;;;5030255;28;20203;-82
2023/03/04 06:17:13;;;;;;;0.30;0.30;;;4.70;99.90;;;;;;5028599;28;20326;-82
2023/03/04 06:19:40;;;;;;;0.30;0.30;;;4.60;99.90;;;;;;5002256;28;20286;-82
2023/03/04 06:22:07;;;;;;;0.30;0.30;;;4.60;99.90;;;;;;5024076;28;20180;-83
2023/03/04 06:24:32;;;;;;;0.30;0.30;;;4.60;99.90;;;;;;5025911;28;20938;-82
2023/03/04 06:26:58;;;;;;;0.30;0.30;;;4.60;99.90;;;;;;5017500;28;20441;-82
2023/03/04 06:29:23;;;;;;;0.30;0.30;;;4.60;99.90;;;;;;5025262;28;20639;-82
2023/03/04 06:31:49;;;;;;;0.40;0.40;;;4.60;99.90;;;;;;5022267;28;20184;-82
2023/03/04 06:34:14;;;;;;;0.40;0.40;;;4.70;99.90;;;;;;5018472;28;20224;-83
2023/03/04 06:36:40;;;;;;;0.30;0.30;;;4.60;99.90;;;;;;5022548;28;20199;-82
2023/03/04 06:39:06;;;;;;;0.30;0.30;;;4.60;99.90;;;;;;5021696;28;20575;-82
2023/03/04 06:41:32;;;;;;;0.30;0.30;;;4.60;99.90;;;;;;5029499;28;20254;-82
2023/03/04 06:43:58;;;;;;;0.30;0.30;;;4.60;99.90;;;;;;5033725;28;20589;-82
2023/03/04 06:46:24;;;;;;;0.40;0.40;;;4.60;99.90;;;;;;5029054;28;20529;-82
2023/03/04 06:48:49;;;;;;;0.40;0.40;;;4.70;99.90;;;;;;5025568;28;20202;-82
2023/03/04 06:51:15;;;;;;;0.40;0.40;;;4.60;99.90;;;;;;5034721;28;20447;-83
2023/03/04 06:53:41;;;;;;;0.40;0.40;;;4.60;99.90;;;;;;5033060;28;20203;-82
2023/03/04 06:56:09;;;;;;;0.30;0.30;;;4.60;99.90;;;;;;5026769;28;20187;-82
2023/03/04 06:58:34;;;;;;;0.40;0.40;;;4.60;99.90;;;;;;5030095;28;20434;-82
2023/03/04 07:01:22;;;;;;;0.40;0.40;;;4.60;99.90;;;;;;5012032;28;20456;-82
2023/03/04 07:03:49;;;;;;;0.40;0.40;;;4.70;99.90;;;;;;5021962;28;20194;-81
2023/03/04 07:06:16;;;;;;;0.40;0.40;;;4.70;99.90;;;;;;5023444;28;20458;-82
2023/03/04 07:08:42;;;;;;;0.30;0.30;;;4.70;99.90;;;;;;5022958;28;20443;-82
2023/03/04 07:11:09;;;;;;;0.30;0.30;;;4.70;99.90;;;;;;5015947;28;20427;-82
2023/03/04 07:13:37;;;;;;;0.30;0.30;;;4.70;99.90;;;;;;5012208;28;20453;-82
2023/03/04 07:16:03;;;;;;;0.40;0.40;;;4.70;99.90;;;;;;5008036;28;20449;-81
2023/03/04 07:18:29;;;;;;;0.40;0.40;;;4.70;99.90;;;;;;5012255;28;20477;-81
2023/03/04 07:20:55;;;;;;;0.30;0.30;;;4.70;99.90;;;;;;5008729;28;20540;-82
2023/03/04 07:23:20;;;;;;;0.40;0.40;;;4.70;99.90;;;;;;5025199;28;20244;-82
2023/03/04 07:25:47;;;;;;;0.30;0.30;;;4.70;99.90;;;;;;5023675;28;20207;-82
2023/03/04 07:28:12;;;;;;;0.40;0.40;;;4.70;99.90;;;;;;5026583;28;20183;-82
2023/03/04 07:30:38;;;;;;;0.30;0.30;;;4.70;99.90;;;;;;5010939;28;21057;-81
2023/03/04 07:33:03;;;;;;;0.30;0.30;;;4.80;99.90;;;;;;5020487;28;20271;-82
2023/03/04 07:35:29;;;;;;;0.37;0.37;;;4.90;99.90;;;;;;5020990;28;20200;-82
2023/03/04 07:37:54;;;;;;;0.30;0.30;;;4.90;99.90;;;;;;5010748;28;20306;-82
2023/03/04 07:40:20;;;;;;;0.40;0.40;;;5.00;99.90;;;;;;5026615;28;20227;-82
2023/03/04 07:42:51;;;;;;;0.30;0.30;;;5.30;99.90;;;;;;5029476;28;20220;-82
2023/03/04 07:45:17;;;;;;;0.30;0.30;;;5.60;99.90;;;;;;5025263;28;20188;-83
2023/03/04 07:47:43;;;;;;;0.30;0.30;;;5.60;99.90;;;;;;5010903;28;20458;-83
2023/03/04 07:50:10;;;;;;;0.30;0.30;;;5.60;99.90;;;;;;5010817;28;20453;-83
2023/03/04 07:52:44;;;;;;;0.30;0.30;;;5.50;99.90;;;;;;5026137;28;20183;-83
2023/03/04 07:55:11;;;;;;;0.30;0.30;;;5.50;99.90;;;;;;5023056;28;20488;-83
2023/03/04 07:57:42;;;;;;;0.30;0.30;;;5.60;99.90;;;;;;5031786;28;20438;-83
2023/03/04 08:00:10;;;;;;;0.30;0.30;;;5.70;99.90;;;;;;5012406;28;20475;-83
2023/03/04 08:02:35;;;;;;;0.30;0.30;;;5.70;99.90;;;;;;5034431;28;20445;-83
2023/03/04 08:05:01;;;;;;;0.30;0.30;;;5.60;99.90;;;;;;5012035;28;21064;-83
2023/03/04 08:07:26;;;;;;;0.30;0.30;;;5.60;99.90;;;;;;5013965;28;20187;-83
2023/03/04 08:09:52;;;;;;;0.30;0.30;;;5.50;99.90;;;;;;5017896;28;20192;-82
2023/03/04 08:12:17;;;;;;;0.30;0.30;;;5.60;99.90;;;;;;5033695;28;20199;-83
2023/03/04 08:14:43;;;;;;;0.30;0.30;;;5.70;99.90;;;;;;5008381;28;20187;-83
2023/03/04 08:17:08;;;;;;;0.30;0.30;;;5.70;99.90;;;;;;5021505;28;20254;-82
2023/03/04 08:19:35;;;;;;;0.30;0.30;;;6.00;99.90;;;;;;5023014;28;20241;-83
2023/03/04 08:22:01;;;;;;;0.30;0.30;;;6.00;99.90;;;;;;5024450;28;20619;-82
2023/03/04 08:24:27;;;;;;;0.30;0.30;;;6.10;99.90;;;;;;5016931;28;20450;-82
2023/03/04 08:26:53;;;;;;;0.30;0.30;;;6.50;99.90;;;;;;5013412;28;20446;-82
2023/03/04 08:29:20;;;;;;;0.30;0.30;;;7.00;99.90;;;;;;5021265;28;20593;-82
2023/03/04 08:31:47;;;;;;;0.30;0.30;;;6.70;99.90;;;;;;5029124;28;20497;-82
2023/03/04 08:34:13;;;;;;;0.30;0.30;;;6.50;99.90;;;;;;5014746;28;20435;-82
2023/03/04 08:36:40;;;;;;;0.20;0.20;;;6.40;99.90;;;;;;5025921;28;20453;-80
2023/03/04 08:39:05;;;;;;;0.30;0.30;;;6.70;99.90;;;;;;5026539;28;20227;-81
2023/03/04 08:41:31;;;;;;;0.20;0.20;;;7.20;99.90;;;;;;5007599;28;21005;-80
2023/03/04 08:43:57;;;;;;;0.30;0.30;;;7.40;99.90;;;;;;5029794;28;20218;-81
2023/03/04 08:46:22;;;;;;;0.30;0.30;;;7.30;99.90;;;;;;5034488;28;20199;-81
2023/03/04 08:48:48;;;;;;;0.30;0.30;;;7.20;99.90;;;;;;5015834;28;21339;-80
2023/03/04 08:51:15;;;;;;;0.30;0.30;;;7.00;99.90;;;;;;5017379;28;20186;-80
2023/03/04 08:53:41;;;;;;;0.30;0.30;;;6.70;99.90;;;;;;5027837;28;20217;-83
2023/03/04 08:56:07;;;;;;;0.30;0.30;;;6.80;99.90;;;;;;5038068;28;20518;-83
2023/03/04 08:58:33;;;;;;;0.30;0.30;;;6.60;99.90;;;;;;5017579;28;20233;-80
2023/03/04 09:01:00;;;;;;;0.30;0.30;;;6.60;99.90;;;;;;5022140;28;20442;-80
2023/03/04 09:03:26;;;;;;;0.30;0.30;;;6.30;99.90;;;;;;5012761;28;20482;-80
2023/03/04 09:05:52;;;;;;;0.30;0.30;;;6.20;99.90;;;;;;5028996;28;20859;-85
2023/03/04 09:08:18;;;;;;;0.30;0.30;;;6.20;99.90;;;;;;5017778;28;20531;-82
2023/03/04 09:10:45;;;;;;;0.30;0.30;;;6.20;99.90;;;;;;5033909;28;20209;-83
2023/03/04 09:13:11;;;;;;;0.30;0.30;;;6.40;99.90;;;;;;5011728;28;20184;-83
2023/03/04 09:15:42;;;;;;;0.30;0.30;;;6.50;99.90;;;;;;5014609;28;20448;-83
2023/03/04 09:18:08;;;;;;;0.30;0.30;;;6.50;99.90;;;;;;5031519;28;20548;-82
2023/03/04 09:20:34;;;;;;;0.30;0.30;;;6.50;99.90;;;;;;5026535;28;20486;-80
2023/03/04 09:23:00;;;;;;;0.30;0.30;;;6.50;99.90;;;;;;5028846;28;21035;-80
2023/03/04 09:25:25;;;;;;;0.30;0.30;;;6.60;99.90;;;;;;5029267;28;20770;-79
2023/03/04 09:27:51;;;;;;;0.30;0.30;;;6.60;99.90;;;;;;5014460;28;20432;-79
2023/03/04 09:30:16;;;;;;;0.30;0.30;;;6.50;99.90;;;;;;5029035;28;20556;-79
2023/03/04 09:32:42;;;;;;;0.20;0.20;;;6.40;99.90;;;;;;5018487;28;20309;-79
2023/03/04 09:35:08;;;;;;;0.30;0.30;;;6.30;99.90;;;;;;5025799;28;20211;-79
2023/03/04 09:37:34;;;;;;;0.30;0.30;;;6.40;99.90;;;;;;5011829;28;20199;-79
2023/03/04 09:40:00;;;;;;;0.30;0.30;;;6.40;99.90;;;;;;5027905;28;20482;-79
2023/03/04 09:42:35;;;;;;;0.30;0.30;;;6.50;99.90;;;;;;5026260;28;20220;-83
2023/03/04 09:45:04;;;;;;;0.30;0.30;;;6.40;99.90;;;;;;5029445;28;20191;-87
2023/03/04 09:47:32;;;;;;;0.30;0.30;;;6.40;99.90;;;;;;5006055;28;20430;-82
2023/03/04 09:50:07;;;;;;;0.30;0.30;;;6.50;99.90;;;;;;5015776;28;20961;-86
2023/03/04 09:52:51;;;;;;;0.30;0.30;;;6.50;99.90;;;;;;5027257;28;20801;-85
2023/03/04 09:55:27;;;;;;;0.30;0.30;;;6.60;99.90;;;;;;5019145;28;20443;-84
2023/03/04 09:57:57;;;;;;;0.30;0.30;;;6.70;99.90;;;;;;5004583;28;20531;-84
2023/03/04 10:00:29;;;;;;;0.30;0.30;;;6.80;99.90;;;;;;5029536;28;20485;-84
2023/03/04 10:03:21;;;;;;;0.20;0.20;;;6.70;99.90;;;;;;5015775;28;20446;-84
2023/03/04 10:06:02;;;;;;;0.30;0.30;;;6.80;99.90;;;;;;5013670;28;20457;-83
2023/03/04 10:08:46;;;;;;;0.30;0.30;;;6.80;99.90;;;;;;5025045;28;20450;-85
2023/03/04 10:11:22;;;;;;;0.30;0.30;;;6.90;99.90;;;;;;5026658;28;20439;-85
2023/03/04 10:14:11;;;;;;;0.30;0.30;;;6.90;99.90;;;;;;5012923;28;20534;-86
2023/03/04 10:16:55;;;;;;;0.30;0.30;;;7.00;99.90;;;;;;5026437;28;20541;-87
2023/03/04 10:19:29;;;;;;;0.30;0.30;;;6.80;99.90;;;;;;5026408;28;20486;-87
2023/03/04 10:21:54;;;;;;;0.30;0.30;;;6.90;99.90;;;;;;5030106;28;20568;-86
2023/03/04 10:24:26;;;;;;;0.30;0.30;;;7.10;99.90;;;;;;5029357;28;20576;-86
2023/03/04 10:26:56;;;;;;;0.30;0.30;;;7.20;99.90;;;;;;5023506;28;20591;-84
2023/03/04 10:29:23;;;;;;;0.30;0.30;;;7.20;99.90;;;;;;5026228;28;20461;-84
2023/03/04 10:31:49;;;;;;;0.30;0.30;;;7.00;99.90;;;;;;5027462;28;20441;-84
2023/03/04 10:34:16;;;;;;;0.30;0.30;;;6.90;99.90;;;;;;5020451;28;21251;-84
2023/03/04 10:36:56;;;;;;;0.30;0.30;;;6.80;99.90;;;;;;5010452;28;20436;-84
2023/03/04 10:39:30;;;;;;;0.20;0.20;;;6.80;99.90;;;;;;5023739;28;20478;-84
2023/03/04 10:42:03;;;;;;;0.30;0.30;;;6.90;99.90;;;;;;5009461;28;20597;-83
2023/03/04 10:44:31;;;;;;;0.27;0.27;;;6.90;99.90;;;;;;5023440;28;20533;-84
2023/03/04 10:46:57;;;;;;;0.30;0.30;;;7.00;99.90;;;;;;5028638;28;20426;-83
2023/03/04 10:49:25;;;;;;;0.30;0.30;;;7.00;99.90;;;;;;5016601;28;20988;-84
2023/03/04 10:51:53;;;;;;;0.20;0.20;;;7.00;99.90;;;;;;5021570;28;20800;-84
2023/03/04 10:54:27;;;;;;;0.20;0.20;;;6.90;99.90;;;;;;5027746;28;20457;-84
2023/03/04 10:57:04;;;;;;;0.20;0.20;;;6.90;99.90;;;;;;5029170;28;20442;-83
2023/03/04 10:59:44;;;;;;;0.30;0.30;;;6.80;99.90;;;;;;5027031;28;20532;-84
2023/03/04 11:02:32;;;;;;;0.30;0.30;;;6.80;99.90;;;;;;5033684;28;20442;-83
2023/03/04 11:05:18;;;;;;;0.30;0.30;;;6.70;99.90;;;;;;5026578;28;20501;-84
2023/03/04 11:07:45;;;;;;;0.30;0.30;;;6.70;99.90;;;;;;5010887;28;20442;-84
2023/03/04 11:10:21;;;;;;;0.30;0.30;;;6.70;99.90;;;;;;5026851;28;20533;-83
2023/03/04 11:13:24;;;;;;;0.30;0.30;;;6.60;99.90;;;;;;5009667;28;20452;-84
2023/03/04 11:16:18;;;;;;;0.40;0.40;;;6.80;99.90;;;;;;5025003;28;20442;-83
2023/03/04 11:18:51;;;;;;;0.30;0.30;;;6.80;99.90;;;;;;5028032;28;20972;-79
2023/03/04 11:21:27;;;;;;;0.30;0.30;;;6.80;99.90;;;;;;5026427;28;20515;-79
2023/03/04 11:24:08;;;;;;;0.30;0.30;;;6.70;99.90;;;;;;5023082;28;20456;-79
2023/03/04 11:26:41;;;;;;;0.30;0.30;;;6.80;99.90;;;;;;5028315;28;20508;-79
2023/03/04 11:29:17;;;;;;;0.30;0.30;;;6.70;99.90;;;;;;5017311;28;20533;-79
2023/03/04 11:32:20;;;;;;;0.30;0.30;;;6.60;99.90;;;;;;5034327;28;20449;-79
2023/03/04 11:34:49;;;;;;;0.30;0.30;;;6.60;99.90;;;;;;5030251;28;20912;-79
2023/03/04 11:37:35;;;;;;;0.30;0.30;;;6.70;99.90;;;;;;5026896;28;20494;-80
2023/03/04 11:40:12;;;;;;;0.30;0.30;;;6.70;99.90;;;;;;5016376;28;20493;-80
2023/03/04 11:42:50;;;;;;;0.30;0.30;;;6.80;99.90;;;;;;5009637;28;20648;-81
2023/03/04 11:45:30;;;;;;;0.30;0.30;;;6.80;99.90;;;;;;5022298;28;20446;-80
2023/03/04 11:48:17;;;;;;;0.23;0.23;;;6.90;99.90;;;;;;5010536;28;20450;-80
2023/03/04 11:50:52;;;;;;;0.30;0.30;;;7.40;99.90;;;;;;5020584;28;21023;-79
2023/03/04 11:53:35;;;;;;;0.30;0.30;;;7.50;99.90;;;;;;5021762;28;20783;-80
2023/03/04 11:56:22;;;;;;;0.23;0.23;;;7.60;99.90;;;;;;5022424;28;20953;-80
2023/03/04 11:59:05;;;;;;;0.20;0.20;;;7.60;99.90;;;;;;5016532;28;20446;-79
2023/03/04 12:01:54;;;;;;;0.20;0.20;;;7.70;99.90;;;;;;5025171;28;20434;-80
2023/03/04 12:04:27;;;;;;;0.20;0.20;;;8.10;99.90;;;;;;5023682;28;20435;-79
2023/03/04 12:07:24;;;;;;;0.20;0.20;;;8.60;99.90;;;;;;5005968;28;20548;-81
2023/03/04 12:10:13;;;;;;;0.30;0.30;;;8.50;99.90;;;;;;5023631;28;20454;-80
2023/03/04 12:12:58;;;;;;;0.20;0.20;;;8.10;99.90;;;;;;5017394;28;20447;-80
2023/03/04 12:15:36;;;;;;;0.20;0.20;;;9.30;99.90;;;;;;5022713;28;20453;-79
2023/03/04 12:18:39;;;;;;;0.20;0.20;;;10.00;99.90;;;;;;5001250;28;20507;-81
2023/03/04 12:21:37;;;;;;;0.20;0.20;;;10.50;99.90;;;;;;5024989;28;20484;-82
2023/03/04 12:24:34;;;;;;;0.10;0.10;;;13.10;99.90;;;;;;5021089;28;20852;-82
2023/03/04 12:27:20;;;;;;;0.10;0.10;;;12.80;99.90;;;;;;5013767;28;20445;-81
2023/03/04 12:29:54;;;;;;;0.10;0.10;;;13.80;99.90;;;;;;5020872;28;20464;-81
2023/03/04 12:32:34;;;;;;;0.10;0.10;;;15.90;99.90;;;;;;5021980;28;20438;-81
2023/03/04 12:35:32;;;;;;;0.10;0.10;;;16.00;99.90;;;;;;5025417;28;20938;-81
2023/03/04 12:38:27;;;;;;;0.10;0.10;;;14.70;99.90;;;;;;5029432;28;20575;-82
2023/03/04 12:41:33;;;;;;;0.10;0.10;;;12.60;99.90;;;;;;5025772;28;20582;-82
2023/03/04 12:44:17;;;;;;;0.10;0.10;;;11.70;99.90;;;;;;5030522;28;20473;-78
2023/03/04 12:47:31;;;;;;;0.10;0.10;;;10.30;99.90;;;;;;5024087;28;20501;-82
2023/03/04 12:50:27;;;;;;;0.10;0.10;;;9.30;99.90;;;;;;5020774;28;20499;-79
2023/03/04 12:53:22;;;;;;;0.20;0.20;;;8.80;99.90;;;;;;5011856;28;20876;-79
2023/03/04 12:55:49;;;;;;;0.10;0.10;;;11.60;99.90;;;;;;5028939;28;20508;-80
2023/03/04 12:58:22;;;;;;;0.10;0.10;;;14.20;99.90;;;;;;5033624;28;20439;-84
2023/03/04 13:00:55;;;;;;;0.10;0.10;;;15.70;99.90;;;;;;5029936;28;21012;-85
2023/03/04 13:03:42;;;;;;;0.10;0.10;;;16.40;99.90;;;;;;5024126;28;20806;-84
2023/03/04 13:06:23;;;;;;;0.10;0.00;;;17.20;98.60;;;;;;5026414;28;20474;-84
2023/03/04 13:08:52;;;;;;;0.10;0.00;;;18.50;97.10;;;;;;5044251;28;21058;-82